createdAt,value
2024-04-30T00:00:00.709Z,16.2
2024-04-30T00:01:00.576Z,16.1
2024-04-30T00:02:00.548Z,16.1
2024-04-30T00:03:00.504Z,16.1
2024-04-30T00:04:00.665Z,16.2
2024-04-30T00:05:00.705Z,16.2
2024-04-30T00:06:04.822Z,16.2
2024-04-30T00:07:00.539Z,16.2
2024-04-30T00:08:00.677Z,16.1
2024-04-30T00:09:02.336Z,16.1
2024-04-30T00:10:00.771Z,16.1
2024-04-30T00:11:00.568Z,16.1
2024-04-30T00:12:00.518Z,16.0
2024-04-30T00:13:00.560Z,16.0
2024-04-30T00:14:00.507Z,15.9
2024-04-30T00:15:00.505Z,15.9
2024-04-30T00:16:02.021Z,15.9
2024-04-30T00:17:00.514Z,15.9
2024-04-30T00:18:00.601Z,15.9
2024-04-30T00:19:00.839Z,15.8
2024-04-30T00:20:01.012Z,15.9
2024-04-30T00:21:00.458Z,15.9
2024-04-30T00:22:00.606Z,15.9
2024-04-30T00:23:00.545Z,16.0
2024-04-30T00:24:00.591Z,16.0
2024-04-30T00:25:00.608Z,16.0
2024-04-30T00:26:00.509Z,16.0
2024-04-30T00:27:00.475Z,16.0
2024-04-30T00:28:00.655Z,16.0
2024-04-30T00:29:00.905Z,15.9
2024-04-30T00:30:00.683Z,15.9
2024-04-30T00:31:02.712Z,16.0
2024-04-30T00:32:00.743Z,16.0
2024-04-30T00:33:00.518Z,16.0
2024-04-30T00:34:00.631Z,16.0
2024-04-30T00:35:00.636Z,16.0
2024-04-30T00:36:00.511Z,15.9
2024-04-30T00:37:00.653Z,15.8
2024-04-30T00:38:00.589Z,15.8
2024-04-30T00:39:00.480Z,15.7
2024-04-30T00:40:00.838Z,15.7
2024-04-30T00:41:00.566Z,15.7
2024-04-30T00:42:00.499Z,15.7
2024-04-30T00:43:00.690Z,15.8
2024-04-30T00:44:00.511Z,15.8
2024-04-30T00:45:00.609Z,15.8
2024-04-30T00:46:00.744Z,15.8
2024-04-30T00:47:00.631Z,15.8
2024-04-30T00:48:01.161Z,15.7
2024-04-30T00:49:01.034Z,15.7
2024-04-30T00:50:01.698Z,15.7
2024-04-30T00:51:05.154Z,15.6
2024-04-30T00:52:00.621Z,15.6
2024-04-30T00:53:01.461Z,15.6
2024-04-30T00:54:00.521Z,15.6
2024-04-30T00:55:00.592Z,15.6
2024-04-30T00:56:01.026Z,15.6
2024-04-30T00:57:00.630Z,15.6
2024-04-30T00:58:00.656Z,15.5
2024-04-30T00:59:00.419Z,15.5
2024-04-30T01:00:00.450Z,15.5
2024-04-30T01:01:00.912Z,15.5
2024-04-30T01:02:00.772Z,15.5
2024-04-30T01:03:00.509Z,15.5
2024-04-30T01:04:00.504Z,15.5
2024-04-30T01:05:00.491Z,15.5
2024-04-30T01:06:00.438Z,15.5
2024-04-30T01:07:00.441Z,15.5
2024-04-30T01:08:00.543Z,15.5
2024-04-30T01:09:00.428Z,15.5
2024-04-30T01:10:00.838Z,15.5
2024-04-30T01:11:00.542Z,15.5
2024-04-30T01:12:00.694Z,15.5
2024-04-30T01:13:01.121Z,15.5
2024-04-30T01:14:00.459Z,15.5
2024-04-30T01:15:00.435Z,15.5
2024-04-30T01:16:00.702Z,15.4
2024-04-30T01:17:00.638Z,15.4
2024-04-30T01:18:00.470Z,15.4
2024-04-30T01:19:00.545Z,15.4
2024-04-30T01:20:00.488Z,15.4
2024-04-30T01:21:00.476Z,15.4
2024-04-30T01:22:00.587Z,15.4
2024-04-30T01:23:00.471Z,15.4
2024-04-30T01:24:00.429Z,15.4
2024-04-30T01:25:00.592Z,15.4
2024-04-30T01:26:00.531Z,15.4
2024-04-30T01:27:00.517Z,15.3
2024-04-30T01:28:00.521Z,15.3
2024-04-30T01:29:00.573Z,15.3
2024-04-30T01:30:00.458Z,15.3
2024-04-30T01:31:00.636Z,15.3
2024-04-30T01:32:00.600Z,15.2
2024-04-30T01:33:00.581Z,15.2
2024-04-30T01:34:00.602Z,15.2
2024-04-30T01:35:00.944Z,15.2
2024-04-30T01:36:00.497Z,15.2
2024-04-30T01:37:00.519Z,15.1
2024-04-30T01:38:00.495Z,15.2
2024-04-30T01:39:00.498Z,15.1
2024-04-30T01:40:00.543Z,15.1
2024-04-30T01:41:00.412Z,15.1
2024-04-30T01:42:00.532Z,15.0
2024-04-30T01:43:00.488Z,14.9
2024-04-30T01:44:00.484Z,14.9
2024-04-30T01:45:00.491Z,14.8
2024-04-30T01:46:00.498Z,14.8
2024-04-30T01:47:00.424Z,14.8
2024-04-30T01:48:00.885Z,14.7
2024-04-30T01:49:00.448Z,14.7
2024-04-30T01:50:00.542Z,14.6
2024-04-30T01:51:00.485Z,14.6
2024-04-30T01:52:00.450Z,14.6
2024-04-30T01:53:00.474Z,14.6
2024-04-30T01:54:00.505Z,14.6
2024-04-30T01:55:00.548Z,14.5
2024-04-30T01:56:00.495Z,14.5
2024-04-30T01:57:00.641Z,14.4
2024-04-30T01:58:00.552Z,14.4
2024-04-30T01:59:00.479Z,14.3
2024-04-30T02:00:00.685Z,14.3
2024-04-30T02:01:00.904Z,14.2
2024-04-30T02:02:00.544Z,14.2
2024-04-30T02:03:00.434Z,14.2
2024-04-30T02:04:00.594Z,14.1
2024-04-30T02:05:07.482Z,14.1
2024-04-30T02:06:00.533Z,14.1
2024-04-30T02:07:00.522Z,14.1
2024-04-30T02:08:00.524Z,14.2
2024-04-30T02:09:00.462Z,14.2
2024-04-30T02:10:00.628Z,14.3
2024-04-30T02:11:00.602Z,14.4
2024-04-30T02:12:00.497Z,14.4
2024-04-30T02:13:00.495Z,14.4
2024-04-30T02:14:00.594Z,14.5
2024-04-30T02:15:00.607Z,14.5
2024-04-30T02:16:00.454Z,14.5
2024-04-30T02:17:00.537Z,14.5
2024-04-30T02:18:00.615Z,14.5
2024-04-30T02:19:00.485Z,14.5
2024-04-30T02:20:00.607Z,14.5
2024-04-30T02:21:00.474Z,14.5
2024-04-30T02:22:00.506Z,14.5
2024-04-30T02:23:00.508Z,14.5
2024-04-30T02:24:00.532Z,14.4
2024-04-30T02:25:00.530Z,14.4
2024-04-30T02:26:00.437Z,14.4
2024-04-30T02:27:00.451Z,14.4
2024-04-30T02:28:00.569Z,14.3
2024-04-30T02:29:00.492Z,14.3
2024-04-30T02:30:00.838Z,14.3
2024-04-30T02:31:00.598Z,14.3
2024-04-30T02:32:00.596Z,14.3
2024-04-30T02:33:00.521Z,14.2
2024-04-30T02:34:00.528Z,14.2
2024-04-30T02:35:00.526Z,14.3
2024-04-30T02:36:00.770Z,14.2
2024-04-30T02:37:00.634Z,14.2
2024-04-30T02:38:00.522Z,14.3
2024-04-30T02:39:00.561Z,14.2
2024-04-30T02:40:00.787Z,14.3
2024-04-30T02:41:00.497Z,14.3
2024-04-30T02:42:00.481Z,14.3
2024-04-30T02:43:00.697Z,14.2
2024-04-30T02:44:00.478Z,14.2
2024-04-30T02:45:00.476Z,14.2
2024-04-30T02:46:00.623Z,14.2
2024-04-30T02:47:00.983Z,14.2
2024-04-30T02:48:00.534Z,14.1
2024-04-30T02:49:00.728Z,14.1
2024-04-30T02:50:00.498Z,14.1
2024-04-30T02:51:01.123Z,14.1
2024-04-30T02:52:00.650Z,14.1
2024-04-30T02:53:00.451Z,14.1
2024-04-30T02:54:00.868Z,14.1
2024-04-30T02:55:00.655Z,14.1
2024-04-30T02:56:00.518Z,14.1
2024-04-30T02:57:00.448Z,14.1
2024-04-30T02:58:00.539Z,14.1
2024-04-30T02:59:00.547Z,14.1
2024-04-30T03:00:00.757Z,14.1
2024-04-30T03:01:00.649Z,14.0
2024-04-30T03:02:00.593Z,14.0
2024-04-30T03:03:00.575Z,14.0
2024-04-30T03:04:00.751Z,14.0
2024-04-30T03:05:00.638Z,14.0
2024-04-30T03:06:00.562Z,14.0
2024-04-30T03:07:00.612Z,13.9
2024-04-30T03:08:00.549Z,13.9
2024-04-30T03:09:00.463Z,13.9
2024-04-30T03:10:00.797Z,13.9
2024-04-30T03:11:00.665Z,13.9
2024-04-30T03:12:00.546Z,13.9
2024-04-30T03:13:00.650Z,13.8
2024-04-30T03:14:00.643Z,13.8
2024-04-30T03:15:00.591Z,13.8
2024-04-30T03:16:03.029Z,13.8
2024-04-30T03:17:00.429Z,13.8
2024-04-30T03:18:00.632Z,13.8
2024-04-30T03:19:00.549Z,13.8
2024-04-30T03:20:00.725Z,13.8
2024-04-30T03:21:00.555Z,13.8
2024-04-30T03:22:00.637Z,13.8
2024-04-30T03:23:00.474Z,13.8
2024-04-30T03:24:00.536Z,13.8
2024-04-30T03:25:00.655Z,13.8
2024-04-30T03:26:00.537Z,13.8
2024-04-30T03:27:00.593Z,13.7
2024-04-30T03:28:03.076Z,13.7
2024-04-30T03:29:00.521Z,13.7
2024-04-30T03:30:00.444Z,13.7
2024-04-30T03:31:00.626Z,13.7
2024-04-30T03:32:00.539Z,13.7
2024-04-30T03:33:00.703Z,13.7
2024-04-30T03:34:00.721Z,13.7
2024-04-30T03:35:00.459Z,13.7
2024-04-30T03:36:00.583Z,13.7
2024-04-30T03:37:00.422Z,13.7
2024-04-30T03:38:00.584Z,13.6
2024-04-30T03:39:00.595Z,13.6
2024-04-30T03:40:00.867Z,13.6
2024-04-30T03:41:00.615Z,13.6
2024-04-30T03:42:00.476Z,13.6
2024-04-30T03:43:00.520Z,13.6
2024-04-30T03:44:00.545Z,13.6
2024-04-30T03:45:00.532Z,13.6
2024-04-30T03:46:00.655Z,13.6
2024-04-30T03:47:00.589Z,13.6
2024-04-30T03:48:00.710Z,13.6
2024-04-30T03:49:00.683Z,13.6
2024-04-30T03:50:02.274Z,13.6
2024-04-30T03:51:03.024Z,13.6
2024-04-30T03:52:00.522Z,13.6
2024-04-30T03:53:00.491Z,13.6
2024-04-30T03:54:00.540Z,13.6
2024-04-30T03:55:00.668Z,13.6
2024-04-30T03:56:00.687Z,13.6
2024-04-30T03:57:00.618Z,13.7
2024-04-30T03:58:00.798Z,13.7
2024-04-30T03:59:00.420Z,13.7
2024-04-30T04:00:00.432Z,13.7
2024-04-30T04:01:00.620Z,13.7
2024-04-30T04:02:00.426Z,13.8
2024-04-30T04:03:00.557Z,13.8
2024-04-30T04:04:00.624Z,13.8
2024-04-30T04:05:00.884Z,13.8
2024-04-30T04:06:00.507Z,13.8
2024-04-30T04:07:00.521Z,13.8
2024-04-30T04:08:00.429Z,13.8
2024-04-30T04:09:00.444Z,13.9
2024-04-30T04:10:00.649Z,13.9
2024-04-30T04:11:00.440Z,13.9
2024-04-30T04:12:00.450Z,13.9
2024-04-30T04:13:02.034Z,13.9
2024-04-30T04:14:00.528Z,13.9
2024-04-30T04:15:00.520Z,13.9
2024-04-30T04:16:00.517Z,13.9
2024-04-30T04:17:00.523Z,13.9
2024-04-30T04:18:00.602Z,13.9
2024-04-30T04:19:00.510Z,13.9
2024-04-30T04:20:00.490Z,14.0
2024-04-30T04:21:00.426Z,13.9
2024-04-30T04:22:00.702Z,13.9
2024-04-30T04:23:00.473Z,13.9
2024-04-30T04:24:00.491Z,14.0
2024-04-30T04:25:00.588Z,14.0
2024-04-30T04:26:00.434Z,14.1
2024-04-30T04:27:01.968Z,14.1
2024-04-30T04:28:00.499Z,14.1
2024-04-30T04:29:00.866Z,14.1
2024-04-30T04:30:00.546Z,14.1
2024-04-30T04:31:00.540Z,14.2
2024-04-30T04:32:01.254Z,14.2
2024-04-30T04:33:00.680Z,14.3
2024-04-30T04:34:00.536Z,14.4
2024-04-30T04:35:00.497Z,14.5
2024-04-30T04:36:00.476Z,14.6
2024-04-30T04:37:00.617Z,14.7
2024-04-30T04:38:00.487Z,14.7
2024-04-30T04:39:00.524Z,14.7
2024-04-30T04:40:00.663Z,14.8
2024-04-30T04:41:00.468Z,14.8
2024-04-30T04:42:00.435Z,14.9
2024-04-30T04:43:00.502Z,15.0
2024-04-30T04:44:00.427Z,15.1
2024-04-30T04:45:00.433Z,15.1
2024-04-30T04:46:00.864Z,15.2
2024-04-30T04:47:00.421Z,15.1
2024-04-30T04:48:00.607Z,15.2
2024-04-30T04:49:00.685Z,15.3
2024-04-30T04:50:00.500Z,15.3
2024-04-30T04:51:00.514Z,15.4
2024-04-30T04:52:00.536Z,15.4
2024-04-30T04:53:00.606Z,15.5
2024-04-30T04:54:00.571Z,15.5
2024-04-30T04:55:04.020Z,15.5
2024-04-30T04:56:00.412Z,15.5
2024-04-30T04:57:00.502Z,15.7
2024-04-30T04:58:00.595Z,15.8
2024-04-30T04:59:00.432Z,16.0
2024-04-30T05:00:00.539Z,16.0
2024-04-30T05:01:00.597Z,16.1
2024-04-30T05:02:00.750Z,16.2
2024-04-30T05:03:00.488Z,16.2
2024-04-30T05:04:00.660Z,16.4
2024-04-30T05:05:00.571Z,16.3
2024-04-30T05:06:02.348Z,16.3
2024-04-30T05:07:02.584Z,16.4
2024-04-30T05:08:00.535Z,16.5
2024-04-30T05:09:00.468Z,16.4
2024-04-30T05:10:00.516Z,16.4
2024-04-30T05:11:00.566Z,16.4
2024-04-30T05:12:00.448Z,16.5
2024-04-30T05:13:00.492Z,16.6
2024-04-30T05:14:00.477Z,16.8
2024-04-30T05:15:00.640Z,16.9
2024-04-30T05:16:00.533Z,17.0
2024-04-30T05:17:00.541Z,17.2
2024-04-30T05:18:00.604Z,17.3
2024-04-30T05:19:00.594Z,17.1
2024-04-30T05:20:00.573Z,17.1
2024-04-30T05:21:00.494Z,17.2
2024-04-30T05:22:00.468Z,17.2
2024-04-30T05:23:00.600Z,17.2
2024-04-30T05:24:00.492Z,17.4
2024-04-30T05:25:00.529Z,17.4
2024-04-30T05:26:00.521Z,17.6
2024-04-30T05:27:00.486Z,17.3
2024-04-30T05:28:02.748Z,17.6
2024-04-30T05:29:00.480Z,17.6
2024-04-30T05:30:00.621Z,17.8
2024-04-30T05:31:00.626Z,17.9
2024-04-30T05:32:00.444Z,18.1
2024-04-30T05:33:00.740Z,18.1
2024-04-30T05:34:00.504Z,18.3
2024-04-30T05:35:00.917Z,18.3
2024-04-30T05:36:00.415Z,18.5
2024-04-30T05:37:00.834Z,18.7
2024-04-30T05:38:00.523Z,18.5
2024-04-30T05:39:03.116Z,18.6
2024-04-30T05:40:00.600Z,18.8
2024-04-30T05:41:00.422Z,19.0
2024-04-30T05:42:00.427Z,19.0
2024-04-30T05:43:00.415Z,19.2
2024-04-30T05:44:00.428Z,19.2
2024-04-30T05:45:00.587Z,19.4
2024-04-30T05:46:00.620Z,19.5
2024-04-30T05:47:00.500Z,19.5
2024-04-30T05:48:00.733Z,19.4
2024-04-30T05:49:00.536Z,19.6
2024-04-30T05:50:00.592Z,19.6
2024-04-30T05:51:00.519Z,19.3
2024-04-30T05:52:00.538Z,19.3
2024-04-30T05:53:00.498Z,19.5
2024-04-30T05:54:00.495Z,19.5
2024-04-30T05:55:00.548Z,19.7
2024-04-30T05:56:00.427Z,19.6
2024-04-30T05:57:00.474Z,19.7
2024-04-30T05:58:00.492Z,20.0
2024-04-30T05:59:00.506Z,20.0
2024-04-30T06:00:00.697Z,19.9
2024-04-30T06:01:00.531Z,19.9
2024-04-30T06:02:00.499Z,20.0
2024-04-30T06:03:03.796Z,19.9
2024-04-30T06:04:00.686Z,19.6
2024-04-30T06:05:00.820Z,19.8
2024-04-30T06:06:00.521Z,20.0
2024-04-30T06:07:00.492Z,20.0
2024-04-30T06:08:00.483Z,20.2
2024-04-30T06:09:00.486Z,20.3
2024-04-30T06:10:00.597Z,20.4
2024-04-30T06:11:00.646Z,20.6
2024-04-30T06:12:00.507Z,20.8
2024-04-30T06:13:00.455Z,21.2
2024-04-30T06:14:00.411Z,21.2
2024-04-30T06:15:00.683Z,21.2
2024-04-30T06:16:00.495Z,21.2
2024-04-30T06:17:00.504Z,21.4
2024-04-30T06:18:00.641Z,21.4
2024-04-30T06:19:00.679Z,21.3
2024-04-30T06:20:00.771Z,21.5
2024-04-30T06:21:00.535Z,21.6
2024-04-30T06:22:00.472Z,21.8
2024-04-30T06:23:00.427Z,21.8
2024-04-30T06:24:00.443Z,21.8
2024-04-30T06:25:00.432Z,21.9
2024-04-30T06:26:00.598Z,21.8
2024-04-30T06:27:00.528Z,22.1
2024-04-30T06:28:00.412Z,21.9
2024-04-30T06:29:00.569Z,21.6
2024-04-30T06:30:00.611Z,21.5
2024-04-30T06:31:00.424Z,21.7
2024-04-30T06:32:00.812Z,21.9
2024-04-30T06:33:00.899Z,21.8
2024-04-30T06:34:00.548Z,22.0
2024-04-30T06:35:00.805Z,21.6
2024-04-30T06:36:00.496Z,21.7
2024-04-30T06:37:00.635Z,21.8
2024-04-30T06:38:00.452Z,21.8
2024-04-30T06:39:00.633Z,21.6
2024-04-30T06:40:00.528Z,22.0
2024-04-30T06:41:00.558Z,22.3
2024-04-30T06:42:00.467Z,22.3
2024-04-30T06:43:00.517Z,22.1
2024-04-30T06:44:00.528Z,22.4
2024-04-30T06:45:00.580Z,22.7
2024-04-30T06:46:00.562Z,22.7
2024-04-30T06:47:00.507Z,22.6
2024-04-30T06:48:00.873Z,22.5
2024-04-30T06:49:00.423Z,22.7
2024-04-30T06:50:00.496Z,22.9
2024-04-30T06:51:00.537Z,22.9
2024-04-30T06:52:00.509Z,22.8
2024-04-30T06:53:00.435Z,23.1
2024-04-30T06:54:00.700Z,23.1
2024-04-30T06:55:00.671Z,23.1
2024-04-30T06:56:00.574Z,22.9
2024-04-30T06:57:00.432Z,23.3
2024-04-30T06:58:00.555Z,23.5
2024-04-30T06:59:00.501Z,23.5
2024-04-30T07:00:00.607Z,23.5
2024-04-30T07:01:00.590Z,23.6
2024-04-30T07:02:00.489Z,23.8
2024-04-30T07:03:00.488Z,24.1
2024-04-30T07:04:00.578Z,24.2
2024-04-30T07:05:00.665Z,24.3
2024-04-30T07:06:00.527Z,24.5
2024-04-30T07:07:00.672Z,24.4
2024-04-30T07:08:00.755Z,24.5
2024-04-30T07:09:00.571Z,24.4
2024-04-30T07:10:00.616Z,24.3
2024-04-30T07:11:02.830Z,24.7
2024-04-30T07:12:00.580Z,24.7
2024-04-30T07:13:00.419Z,24.8
2024-04-30T07:14:00.445Z,25.0
2024-04-30T07:15:00.442Z,24.9
2024-04-30T07:16:00.667Z,25.2
2024-04-30T07:17:07.438Z,25.8
2024-04-30T07:18:00.572Z,25.5
2024-04-30T07:19:00.500Z,25.3
2024-04-30T07:20:00.530Z,25.4
2024-04-30T07:21:00.631Z,25.5
2024-04-30T07:22:00.489Z,25.8
2024-04-30T07:23:00.510Z,25.6
2024-04-30T07:24:00.505Z,25.5
2024-04-30T07:25:00.552Z,25.1
2024-04-30T07:26:00.520Z,24.8
2024-04-30T07:27:00.572Z,24.5
2024-04-30T07:28:00.591Z,25.0
2024-04-30T07:29:00.515Z,25.1
2024-04-30T07:30:00.546Z,25.3
2024-04-30T07:31:00.424Z,25.3
2024-04-30T07:32:00.701Z,25.6
2024-04-30T07:33:00.824Z,25.7
2024-04-30T07:34:00.518Z,25.6
2024-04-30T07:35:00.884Z,25.5
2024-04-30T07:36:00.454Z,25.1
2024-04-30T07:37:00.487Z,25.5
2024-04-30T07:38:00.705Z,25.5
2024-04-30T07:39:00.497Z,25.6
2024-04-30T07:40:00.663Z,25.6
2024-04-30T07:41:00.434Z,25.9
2024-04-30T07:42:00.571Z,26.0
2024-04-30T07:43:00.528Z,26.2
2024-04-30T07:44:00.557Z,26.3
2024-04-30T07:45:00.460Z,26.3
2024-04-30T07:46:00.546Z,25.5
2024-04-30T07:47:00.427Z,25.2
2024-04-30T07:48:00.748Z,25.6
2024-04-30T07:49:00.706Z,25.4
2024-04-30T07:50:00.537Z,25.2
2024-04-30T07:51:00.496Z,25.1
2024-04-30T07:52:00.419Z,25.2
2024-04-30T07:53:00.481Z,25.2
2024-04-30T07:54:00.493Z,24.9
2024-04-30T07:55:00.570Z,25.0
2024-04-30T07:56:00.514Z,25.1
2024-04-30T07:57:00.435Z,25.3
2024-04-30T07:58:00.481Z,25.4
2024-04-30T07:59:00.533Z,25.9
2024-04-30T08:00:00.475Z,25.9
2024-04-30T08:01:00.575Z,25.8
2024-04-30T08:02:00.754Z,25.6
2024-04-30T08:03:00.669Z,25.7
2024-04-30T08:04:00.611Z,25.9
2024-04-30T08:05:00.476Z,26.2
2024-04-30T08:06:10.262Z,26.3
2024-04-30T08:07:00.432Z,26.2
2024-04-30T08:08:00.522Z,26.3
2024-04-30T08:09:00.525Z,26.4
2024-04-30T08:10:00.569Z,26.3
2024-04-30T08:11:00.519Z,26.5
2024-04-30T08:12:00.497Z,26.8
2024-04-30T08:13:00.553Z,26.6
2024-04-30T08:14:00.434Z,26.8
2024-04-30T08:15:00.549Z,27.1
2024-04-30T08:16:00.539Z,27.2
2024-04-30T08:17:00.645Z,27.2
2024-04-30T08:18:00.567Z,27.1
2024-04-30T08:19:00.489Z,27.1
2024-04-30T08:20:00.516Z,27.4
2024-04-30T08:21:00.429Z,27.0
2024-04-30T08:22:00.499Z,26.8
2024-04-30T08:23:00.434Z,26.9
2024-04-30T08:24:00.671Z,27.2
2024-04-30T08:25:00.510Z,26.9
2024-04-30T08:26:00.597Z,26.4
2024-04-30T08:27:00.499Z,25.9
2024-04-30T08:28:00.573Z,25.5
2024-04-30T08:29:00.971Z,25.6
2024-04-30T08:30:00.467Z,25.5
2024-04-30T08:31:00.594Z,25.7
2024-04-30T08:32:00.483Z,25.8
2024-04-30T08:33:00.884Z,26.0
2024-04-30T08:34:00.443Z,25.6
2024-04-30T08:35:00.524Z,25.4
2024-04-30T08:36:00.453Z,25.3
2024-04-30T08:37:00.418Z,25.1
2024-04-30T08:38:01.579Z,25.4
2024-04-30T08:39:00.510Z,25.5
2024-04-30T08:40:00.604Z,25.7
2024-04-30T08:41:04.676Z,26.1
2024-04-30T08:42:00.494Z,26.1
2024-04-30T08:43:00.620Z,26.4
2024-04-30T08:44:00.965Z,26.5
2024-04-30T08:45:02.505Z,26.7
2024-04-30T08:46:00.813Z,26.7
2024-04-30T08:47:03.030Z,26.2
2024-04-30T08:48:02.235Z,26.4
2024-04-30T08:49:01.469Z,26.6
2024-04-30T08:50:13.399Z,26.5
2024-04-30T08:51:01.010Z,26.8
2024-04-30T08:52:00.853Z,27.1
2024-04-30T08:53:03.507Z,26.4
2024-04-30T08:54:00.739Z,26.5
2024-04-30T08:55:02.486Z,26.1
2024-04-30T08:56:00.664Z,25.6
2024-04-30T08:57:00.561Z,25.6
2024-04-30T08:58:00.942Z,25.7
2024-04-30T08:59:00.612Z,25.6
2024-04-30T09:00:00.801Z,25.6
2024-04-30T09:01:00.961Z,25.9
2024-04-30T09:02:01.896Z,26.0
2024-04-30T09:03:02.948Z,26.3
2024-04-30T09:04:02.761Z,26.4
2024-04-30T09:05:02.492Z,26.7
2024-04-30T09:06:00.820Z,27.0
2024-04-30T09:07:03.060Z,27.0
2024-04-30T09:08:01.792Z,26.4
2024-04-30T09:09:00.420Z,25.9
2024-04-30T09:10:01.733Z,25.6
2024-04-30T09:11:00.580Z,25.6
2024-04-30T09:12:00.776Z,25.6
2024-04-30T09:13:00.597Z,25.6
2024-04-30T09:14:00.685Z,26.0
2024-04-30T09:15:00.593Z,26.0
2024-04-30T09:16:00.689Z,25.8
2024-04-30T09:17:01.052Z,25.7
2024-04-30T09:18:08.409Z,25.5
2024-04-30T09:19:00.425Z,25.7
2024-04-30T09:21:12.254Z,25.5
2024-04-30T09:22:04.875Z,25.4
2024-04-30T09:23:00.431Z,25.5
2024-04-30T09:24:08.062Z,25.5
2024-04-30T09:25:00.491Z,25.5
2024-04-30T09:26:08.921Z,25.7
2024-04-30T09:27:00.524Z,25.8
2024-04-30T09:28:00.954Z,26.0
2024-04-30T09:29:00.491Z,25.5
2024-04-30T09:30:00.494Z,25.4
2024-04-30T09:31:00.504Z,25.2
2024-04-30T09:32:00.556Z,25.2
2024-04-30T09:33:06.016Z,25.5
2024-04-30T09:34:00.515Z,25.4
2024-04-30T09:35:00.532Z,25.3
2024-04-30T09:37:00.447Z,25.1
2024-04-30T09:38:04.620Z,25.1
2024-04-30T09:39:01.191Z,25.1
2024-04-30T09:40:04.338Z,25.0
2024-04-30T09:41:01.214Z,25.3
2024-04-30T09:42:02.396Z,25.4
2024-04-30T09:43:02.039Z,25.3
2024-04-30T09:44:01.299Z,25.2
2024-04-30T09:45:00.982Z,25.0
2024-04-30T09:46:00.832Z,25.0
2024-04-30T09:47:01.124Z,25.0
2024-04-30T09:48:04.333Z,25.0
2024-04-30T09:49:04.355Z,24.9
2024-04-30T09:50:01.740Z,25.0
2024-04-30T09:51:03.354Z,24.8
2024-04-30T09:52:02.562Z,24.6
2024-04-30T09:53:01.601Z,24.3
2024-04-30T09:54:00.836Z,24.2
2024-04-30T09:55:00.572Z,24.2
2024-04-30T09:56:01.262Z,24.1
2024-04-30T09:57:00.896Z,24.1
2024-04-30T09:58:01.665Z,24.1
2024-04-30T09:59:00.562Z,24.2
2024-04-30T10:00:01.268Z,24.2
2024-04-30T10:01:04.239Z,24.2
2024-04-30T10:02:06.436Z,24.1
2024-04-30T10:03:05.285Z,24.2
2024-04-30T10:04:03.145Z,24.2
2024-04-30T10:05:01.268Z,24.4
2024-04-30T10:06:01.425Z,24.4
2024-04-30T10:07:02.660Z,24.5
2024-04-30T10:08:01.717Z,24.5
2024-04-30T10:09:00.639Z,24.6
2024-04-30T10:10:00.511Z,24.5
2024-04-30T10:11:04.018Z,24.5
2024-04-30T10:12:00.505Z,24.5
2024-04-30T10:13:09.584Z,24.6
2024-04-30T10:14:00.476Z,24.6
2024-04-30T10:15:16.057Z,24.7
2024-04-30T10:16:11.890Z,24.7
2024-04-30T10:17:01.609Z,24.6
2024-04-30T10:18:00.581Z,24.5
2024-04-30T10:19:01.735Z,24.5
2024-04-30T10:20:00.514Z,24.5
2024-04-30T10:21:06.941Z,24.4
2024-04-30T10:22:00.443Z,24.4
2024-04-30T10:23:00.725Z,24.5
2024-04-30T10:25:00.473Z,24.6
2024-04-30T10:27:00.499Z,24.6
2024-04-30T10:28:09.284Z,24.6
2024-04-30T10:29:04.441Z,24.7
2024-04-30T10:30:00.615Z,24.8
2024-04-30T10:31:04.349Z,24.7
2024-04-30T10:32:00.661Z,24.5
2024-04-30T10:33:00.891Z,24.5
2024-04-30T10:34:08.578Z,24.6
2024-04-30T10:35:00.421Z,24.7
2024-04-30T10:36:01.264Z,24.6
2024-04-30T10:37:00.495Z,24.6
2024-04-30T10:38:03.043Z,24.6
2024-04-30T10:39:00.498Z,24.6
2024-04-30T10:40:07.996Z,24.7
2024-04-30T10:41:02.755Z,24.6
2024-04-30T10:42:00.424Z,24.6
2024-04-30T10:43:00.498Z,24.5
2024-04-30T10:44:01.576Z,24.6
2024-04-30T10:45:00.770Z,24.6
2024-04-30T10:46:17.308Z,24.7
2024-04-30T10:47:00.565Z,24.7
2024-04-30T10:48:00.767Z,24.8
2024-04-30T10:49:00.493Z,24.8
2024-04-30T10:50:15.713Z,24.8
2024-04-30T10:51:00.530Z,24.9
2024-04-30T10:52:00.477Z,24.9
2024-04-30T10:53:01.123Z,25.0
2024-04-30T10:54:01.538Z,25.0
2024-04-30T10:55:00.792Z,25.1
2024-04-30T10:56:01.191Z,25.1
2024-04-30T10:57:00.523Z,25.2
2024-04-30T10:58:15.942Z,25.2
2024-04-30T10:59:00.539Z,25.2
2024-04-30T11:00:01.028Z,25.2
2024-04-30T11:01:00.546Z,25.2
2024-04-30T11:02:00.550Z,25.3
2024-04-30T11:03:00.558Z,25.2
2024-04-30T11:05:11.672Z,25.1
2024-04-30T11:06:00.908Z,25.0
2024-04-30T11:07:00.843Z,24.9
2024-04-30T11:08:00.576Z,24.9
2024-04-30T11:09:04.272Z,24.8
2024-04-30T11:10:00.482Z,24.7
2024-04-30T11:11:09.638Z,24.6
2024-04-30T11:12:00.416Z,24.8
2024-04-30T11:13:01.584Z,24.8
2024-04-30T11:14:01.098Z,24.9
2024-04-30T11:15:00.530Z,24.9
2024-04-30T11:16:07.855Z,24.7
2024-04-30T11:17:00.551Z,24.7
2024-04-30T11:18:00.779Z,24.8
2024-04-30T11:19:00.450Z,24.8
2024-04-30T11:20:00.695Z,24.9
2024-04-30T11:21:00.421Z,24.9
2024-04-30T11:22:00.441Z,24.9
2024-04-30T11:23:00.478Z,24.8
2024-04-30T11:24:00.417Z,24.9
2024-04-30T11:25:00.491Z,24.9
2024-04-30T11:26:00.472Z,24.9
2024-04-30T11:27:00.494Z,25.0
2024-04-30T11:28:00.421Z,25.0
2024-04-30T11:29:15.255Z,25.0
2024-04-30T11:30:00.573Z,25.0
2024-04-30T11:31:00.496Z,25.0
2024-04-30T11:32:00.629Z,25.0
2024-04-30T11:33:00.658Z,25.1
2024-04-30T11:34:00.863Z,25.2
2024-04-30T11:35:00.464Z,25.2
2024-04-30T11:36:00.455Z,25.3
2024-04-30T11:37:00.480Z,25.3
2024-04-30T11:38:00.770Z,25.4
2024-04-30T11:39:00.475Z,25.5
2024-04-30T11:40:00.557Z,25.5
2024-04-30T11:41:00.483Z,25.5
2024-04-30T11:42:12.504Z,25.5
2024-04-30T11:43:00.527Z,25.5
2024-04-30T11:44:00.783Z,25.4
2024-04-30T11:45:00.765Z,25.3
2024-04-30T11:46:00.483Z,25.2
2024-04-30T11:47:00.484Z,25.2
2024-04-30T11:48:00.674Z,25.3
2024-04-30T11:49:00.472Z,25.3
2024-04-30T11:50:00.461Z,25.5
2024-04-30T11:51:00.752Z,25.4
2024-04-30T11:52:00.909Z,25.3
2024-04-30T11:53:00.750Z,25.2
2024-04-30T11:54:00.525Z,25.1
2024-04-30T11:55:00.419Z,25.1
2024-04-30T11:56:00.535Z,25.1
2024-04-30T11:57:00.798Z,25.2
2024-04-30T11:58:00.504Z,25.3
2024-04-30T11:59:00.482Z,25.4
2024-04-30T12:00:00.461Z,25.4
2024-04-30T12:01:00.529Z,25.5
2024-04-30T12:02:00.482Z,25.5
2024-04-30T12:03:00.522Z,25.5
2024-04-30T12:04:00.427Z,25.5
2024-04-30T12:05:00.770Z,25.6
2024-04-30T12:06:00.488Z,25.6
2024-04-30T12:07:00.457Z,25.6
2024-04-30T12:08:00.696Z,25.7
2024-04-30T12:09:00.529Z,25.6
2024-04-30T12:10:00.461Z,25.5
2024-04-30T12:11:00.621Z,25.5
2024-04-30T12:12:00.522Z,25.5
2024-04-30T12:13:00.452Z,25.5
2024-04-30T12:14:00.475Z,25.5
2024-04-30T12:15:00.432Z,25.5
2024-04-30T12:16:00.478Z,25.5
2024-04-30T12:17:00.601Z,25.6
2024-04-30T12:18:00.628Z,25.6
2024-04-30T12:19:00.603Z,25.5
2024-04-30T12:20:00.598Z,25.4
2024-04-30T12:21:00.480Z,25.4
2024-04-30T12:22:00.485Z,25.4
2024-04-30T12:23:00.520Z,25.4
2024-04-30T12:24:00.538Z,25.5
2024-04-30T12:25:00.546Z,25.5
2024-04-30T12:26:00.421Z,25.4
2024-04-30T12:27:00.412Z,25.4
2024-04-30T12:28:00.629Z,25.3
2024-04-30T12:29:00.497Z,25.4
2024-04-30T12:30:00.481Z,25.4
2024-04-30T12:31:00.584Z,25.4
2024-04-30T12:32:00.520Z,25.5
2024-04-30T12:33:00.710Z,25.4
2024-04-30T12:34:00.548Z,25.5
2024-04-30T12:35:00.559Z,25.5
2024-04-30T12:36:00.449Z,25.6
2024-04-30T12:37:00.416Z,25.6
2024-04-30T12:38:00.426Z,25.6
2024-04-30T12:39:00.472Z,25.5
2024-04-30T12:40:01.700Z,25.5
2024-04-30T12:41:00.455Z,25.5
2024-04-30T12:42:00.491Z,25.5
2024-04-30T12:43:00.471Z,25.5
2024-04-30T12:44:00.442Z,25.5
2024-04-30T12:45:00.431Z,25.6
2024-04-30T12:46:03.868Z,25.7
2024-04-30T12:47:00.544Z,25.8
2024-04-30T12:48:00.729Z,25.9
2024-04-30T12:49:00.534Z,25.8
2024-04-30T12:50:00.534Z,25.7
2024-04-30T12:51:00.432Z,25.7
2024-04-30T12:52:00.795Z,25.6
2024-04-30T12:53:00.600Z,25.6
2024-04-30T12:54:00.486Z,25.7
2024-04-30T12:55:00.545Z,25.7
2024-04-30T12:56:00.487Z,25.6
2024-04-30T12:57:00.832Z,25.5
2024-04-30T12:58:00.453Z,25.5
2024-04-30T12:59:00.468Z,25.5
2024-04-30T13:00:00.548Z,25.5
2024-04-30T13:01:00.487Z,25.6
2024-04-30T13:02:00.550Z,25.6
2024-04-30T13:03:00.536Z,25.6
2024-04-30T13:04:00.454Z,25.5
2024-04-30T13:05:00.606Z,25.6
2024-04-30T13:06:00.548Z,25.6
2024-04-30T13:07:00.459Z,25.7
2024-04-30T13:08:00.672Z,25.7
2024-04-30T13:09:00.479Z,25.8
2024-04-30T13:10:00.556Z,25.8
2024-04-30T13:11:00.660Z,25.8
2024-04-30T13:12:00.519Z,25.8
2024-04-30T13:13:00.507Z,25.8
2024-04-30T13:14:00.450Z,25.7
2024-04-30T13:15:00.441Z,25.7
2024-04-30T13:16:00.517Z,25.6
2024-04-30T13:17:00.424Z,25.7
2024-04-30T13:18:00.498Z,25.7
2024-04-30T13:19:00.574Z,25.7
2024-04-30T13:20:00.644Z,25.7
2024-04-30T13:21:00.404Z,25.6
2024-04-30T13:22:00.518Z,25.6
2024-04-30T13:23:00.422Z,25.7